Viladoconde — WCY3150 — position and weather

sailwx.info

Track history (hours):
 
Tides and Currents Weather Stations Pressure Air Temp Water Temp Dewpoint Dewpoint Depression Visibility Wind Speed Wind Dir Waves Ship Positions

Viladoconde

Owner: VILA DO CONDE INC, CAPE MAY, NJ. More information available from US FCC via Universal Licensing System and Coast Guard Vessel Documentation Center.

Last reported at 2017-Oct-10 23:52 UTC. Time now 2017-Nov-20 07:58 UTC.
Position N 38°57' W 074°53'.
Warning: this ship's position is 40 days out of date.

Length 28 m.

Type: Fishing. MMSI: 366747870.

Date/timePositionNaut miles runAvg speedWind from/ knotsBaromVisibWave heightAir tempDewpointWater temp
2017-Oct-10 23:52N 38°57' W 074°53'0 0.0
2017-Oct-10 13:52N 38°57' W 074°53'0 0.0
2017-Oct-10 13:06N 38°57' W 074°53'0 0.0
2017-Oct-10 12:57N 38°57' W 074°53'0 0.0
2017-Oct-10 12:27N 38°57' W 074°53'0 0.0
2017-Oct-10 12:01N 38°57' W 074°53'0 0.0
2017-Oct-10 09:52N 38°57' W 074°53'0 0.0
2017-Oct-10 09:31N 38°57' W 074°53'0 0.0
2017-Oct-10 08:27N 38°57' W 074°53'0 0.0
2017-Oct-10 07:52N 38°57' W 074°53'0 0.0
2017-Oct-10 07:30N 38°57' W 074°53'0 0.0
2017-Oct-10 06:57N 38°57' W 074°53'0 0.0
2017-Oct-10 06:30N 38°57' W 074°53'0 0.0
2017-Oct-10 05:55N 38°57' W 074°53'0 0.0
2017-Oct-10 05:24N 38°57' W 074°53'0 0.0
2017-Oct-10 04:57N 38°57' W 074°53'0 0.0
2017-Oct-09 14:40N 38°57' W 074°53'0 0.0
2017-Oct-09 07:09N 38°57' W 074°53'0 0.0
2017-Oct-09 06:57N 38°57' W 074°53'0 0.0
2017-Oct-09 06:21N 38°57' W 074°53'0 0.0
2017-Oct-09 05:48N 38°57' W 074°53'0 0.0
2017-Oct-09 05:27N 38°57' W 074°53'0 0.0
2017-Oct-08 02:28N 38°57' W 074°53'0 0.0
2017-Oct-08 01:40N 38°57' W 074°53'0 0.0
2017-Oct-08 01:28N 38°57' W 074°53'0 0.0
2017-Oct-08 00:49N 38°57' W 074°53'0 0.0
2017-Oct-08 00:27N 38°57' W 074°53'0 0.0
2017-Oct-07 23:39N 38°57' W 074°53'0 0.0
2017-Oct-07 23:22N 38°57' W 074°53'0 0.0
2017-Oct-07 23:00N 38°57' W 074°53'0 0.0
2017-Oct-07 15:28N 38°57' W 074°53'0 0.0
2017-Oct-07 15:01N 38°57' W 074°53'0 0.0
2017-Oct-07 14:18N 38°57' W 074°53'0 0.0
2017-Oct-07 13:57N 38°57' W 074°53'0 0.0
2017-Oct-07 09:43N 38°57' W 074°53'0 0.0
2017-Oct-07 08:31N 38°57' W 074°53'0 0.0
2017-Oct-07 07:37N 38°57' W 074°53'101 2.4
2017-Oct-05 13:49N 39°35' W 072°51'1 3.9
2017-Oct-05 13:29N 39°34' W 072°51'1 0.9
2017-Oct-05 12:39N 39°33' W 072°52'1 4.7
2017-Oct-05 12:27N 39°34' W 072°52'2 0.6
2017-Oct-05 07:59N 39°32' W 072°53'4 1.2
2017-Oct-05 04:40N 39°31' W 072°59'1 4.4
2017-Oct-05 04:30N 39°31' W 072°58'2 3.9
2017-Oct-05 03:56N 39°31' W 072°55'  
Track history (hours):
 
Tides and Currents Weather Stations Pressure Air Temp Water Temp Dewpoint Dewpoint Depression Visibility Wind Speed Wind Dir Waves Ship Positions

Viladoconde

Owner: VILA DO CONDE INC, CAPE MAY, NJ. More information available from US FCC via Universal Licensing System and Coast Guard Vessel Documentation Center.

Last reported at 2017-Oct-10 23:52 UTC. Time now 2017-Nov-20 07:58 UTC.
Position N 38°57' W 074°53'.
Warning: this ship's position is 40 days out of date.

Length 28 m.

Type: Fishing. MMSI: 366747870.

Date/timePositionNaut miles runAvg speedWind from/ knotsBaromVisibWave heightAir tempDewpointWater temp
2017-Oct-10 23:52N 38°57' W 074°53'0 0.0
2017-Oct-10 13:52N 38°57' W 074°53'0 0.0
2017-Oct-10 13:06N 38°57' W 074°53'0 0.0
2017-Oct-10 12:57N 38°57' W 074°53'0 0.0
2017-Oct-10 12:27N 38°57' W 074°53'0 0.0
2017-Oct-10 12:01N 38°57' W 074°53'0 0.0
2017-Oct-10 09:52N 38°57' W 074°53'0 0.0
2017-Oct-10 09:31N 38°57' W 074°53'0 0.0
2017-Oct-10 08:27N 38°57' W 074°53'0 0.0
2017-Oct-10 07:52N 38°57' W 074°53'0 0.0
2017-Oct-10 07:30N 38°57' W 074°53'0 0.0
2017-Oct-10 06:57N 38°57' W 074°53'0 0.0
2017-Oct-10 06:30N 38°57' W 074°53'0 0.0
2017-Oct-10 05:55N 38°57' W 074°53'0 0.0
2017-Oct-10 05:24N 38°57' W 074°53'0 0.0
2017-Oct-10 04:57N 38°57' W 074°53'0 0.0
2017-Oct-09 14:40N 38°57' W 074°53'0 0.0
2017-Oct-09 07:09N 38°57' W 074°53'0 0.0
2017-Oct-09 06:57N 38°57' W 074°53'0 0.0
2017-Oct-09 06:21N 38°57' W 074°53'0 0.0
2017-Oct-09 05:48N 38°57' W 074°53'0 0.0
2017-Oct-09 05:27N 38°57' W 074°53'0 0.0
2017-Oct-08 02:28N 38°57' W 074°53'0 0.0
2017-Oct-08 01:40N 38°57' W 074°53'0 0.0
2017-Oct-08 01:28N 38°57' W 074°53'0 0.0
2017-Oct-08 00:49N 38°57' W 074°53'0 0.0
2017-Oct-08 00:27N 38°57' W 074°53'0 0.0
2017-Oct-07 23:39N 38°57' W 074°53'0 0.0
2017-Oct-07 23:22N 38°57' W 074°53'0 0.0
2017-Oct-07 23:00N 38°57' W 074°53'0 0.0
2017-Oct-07 15:28N 38°57' W 074°53'0 0.0
2017-Oct-07 15:01N 38°57' W 074°53'0 0.0
2017-Oct-07 14:18N 38°57' W 074°53'0 0.0
2017-Oct-07 13:57N 38°57' W 074°53'0 0.0
2017-Oct-07 09:43N 38°57' W 074°53'0 0.0
2017-Oct-07 08:31N 38°57' W 074°53'0 0.0
2017-Oct-07 07:37N 38°57' W 074°53'101 2.4
2017-Oct-05 13:49N 39°35' W 072°51'1 3.9
2017-Oct-05 13:29N 39°34' W 072°51'1 0.9
2017-Oct-05 12:39N 39°33' W 072°52'1 4.7
2017-Oct-05 12:27N 39°34' W 072°52'2 0.6
2017-Oct-05 07:59N 39°32' W 072°53'4 1.2
2017-Oct-05 04:40N 39°31' W 072°59'1 4.4
2017-Oct-05 04:30N 39°31' W 072°58'2 3.9
2017-Oct-05 03:56N 39°31' W 072°55'  

Dump ship's entire track history